Time;durP1;ratioP1;P1;durP2;ratioP2;P2;SDS_P1;SDS_P2;PMS_P1;PMS_P2;Temp;Humidity;BMP_temperature;BMP_pressure;BME280_temperature;BME280_humidity;BME280_pressure;Samples;Min_cycle;Max_cycle;Signal;HPM_P1;HPM_P2
2021/12/26 02:35:01;;;;;;;9.40;4.53;;;;;;;2.94;100.00;93508.53;5048062;22;20055;-84
2021/12/26 02:37:27;;;;;;;12.70;5.22;;;;;;;2.92;100.00;93505.41;4994141;28;20341;-84
2021/12/26 02:39:53;;;;;;;13.77;5.80;;;;;;;3.11;100.00;93515.44;5020891;28;20046;-84
2021/12/26 02:42:20;;;;;;;25.63;6.80;;;;;;;2.93;100.00;93509.56;5011391;28;20137;-84
2021/12/26 02:44:46;;;;;;;39.10;9.25;;;;;;;2.86;100.00;93508.16;5003629;28;20064;-84
2021/12/26 02:47:12;;;;;;;39.80;11.00;;;;;;;2.77;100.00;93508.56;5014729;28;20021;-84
2021/12/26 02:49:38;;;;;;;26.23;11.98;;;;;;;2.68;100.00;93518.53;5006936;28;20025;-83
2021/12/26 02:52:04;;;;;;;25.35;9.15;;;;;;;2.73;100.00;93523.00;5001732;28;20129;-84
2021/12/26 02:54:29;;;;;;;13.70;4.45;;;;;;;2.72;100.00;93524.03;5017493;28;20076;-84
2021/12/26 02:56:54;;;;;;;22.42;8.50;;;;;;;2.94;100.00;93529.22;4985455;28;20029;-84
2021/12/26 02:59:20;;;;;;;19.13;7.65;;;;;;;3.17;100.00;93522.28;5001346;28;20032;-84
2021/12/26 03:01:45;;;;;;;16.13;6.95;;;;;;;3.32;100.00;93521.66;5001434;28;20137;-84
2021/12/26 03:04:11;;;;;;;18.13;7.50;;;;;;;3.44;100.00;93534.44;4984690;28;20120;-84
2021/12/26 03:07:01;;;;;;;17.05;7.28;;;;;;;3.56;100.00;93529.16;4987150;28;20029;-84
2021/12/26 03:09:29;;;;;;;13.65;7.10;;;;;;;3.68;100.00;93534.97;4988448;28;20121;-84
2021/12/26 03:11:57;;;;;;;10.40;5.13;;;;;;;3.77;100.00;93531.94;5010429;28;20064;-84
2021/12/26 03:14:23;;;;;;;9.98;4.85;;;;;;;3.90;100.00;93531.53;4999984;28;20026;-84
2021/12/26 03:16:50;;;;;;;6.82;3.33;;;;;;;4.03;100.00;93532.97;4985090;28;20018;-84
2021/12/26 03:19:15;;;;;;;5.97;3.20;;;;;;;4.14;100.00;93533.81;4984925;28;20496;-84
2021/12/26 03:21:59;;;;;;;5.63;3.10;;;;;;;4.17;100.00;93524.78;4985028;28;20025;-84
2021/12/26 03:24:24;;;;;;;4.35;2.70;;;;;;;4.20;100.00;93527.66;4984550;28;20060;-84
2021/12/26 03:26:49;;;;;;;4.30;2.30;;;;;;;4.05;100.00;93515.34;5000899;28;20393;-84
2021/12/26 03:29:15;;;;;;;3.05;1.70;;;;;;;3.97;100.00;93508.00;5000894;28;20112;-84
2021/12/26 03:31:41;;;;;;;2.83;1.60;;;;;;;3.86;100.00;93516.72;5000839;28;20057;-84
2021/12/26 03:34:08;;;;;;;4.85;1.58;;;;;;;3.90;100.00;93515.22;5000308;28;20030;-84
2021/12/26 03:36:33;;;;;;;2.50;1.40;;;;;;;3.93;100.00;93518.09;4984848;28;20041;-84
2021/12/26 03:38:59;;;;;;;2.25;1.67;;;;;;;3.86;100.00;93525.28;5000821;28;20034;-84
2021/12/26 03:41:24;;;;;;;9.20;2.35;;;;;;;3.65;100.00;93527.69;4984178;28;20037;-84
2021/12/26 03:43:50;;;;;;;4.35;2.15;;;;;;;3.68;100.00;93516.84;5000195;28;20029;-84
2021/12/26 03:46:15;;;;;;;3.88;1.85;;;;;;;3.70;100.00;93523.59;5000559;28;20029;-84
2021/12/26 03:48:41;;;;;;;31.75;3.05;;;;;;;3.57;100.00;93516.97;5016873;28;20030;-84
2021/12/26 03:51:06;;;;;;;3.72;2.10;;;;;;;3.60;100.00;93524.28;5000574;28;20026;-84
2021/12/26 03:53:32;;;;;;;4.10;1.80;;;;;;;3.62;100.00;93522.22;4999991;28;20030;-84
2021/12/26 03:55:58;;;;;;;3.22;1.75;;;;;;;3.70;100.00;93523.59;4984382;28;20064;-84
2021/12/26 03:58:24;;;;;;;3.50;1.42;;;;;;;3.78;100.00;93528.31;4984337;28;20026;-84
2021/12/26 04:00:50;;;;;;;3.40;1.70;;;;;;;3.72;100.00;93532.66;5000376;28;20105;-84
2021/12/26 04:03:19;;;;;;;75.38;5.72;;;;;;;3.72;100.00;93535.25;4999770;28;20345;-84
2021/12/26 04:05:45;;;;;;;9.18;3.38;;;;;;;3.79;100.00;93533.25;5000611;28;20036;-84
2021/12/26 04:08:11;;;;;;;17.85;6.13;;;;;;;3.90;100.00;93531.53;5000213;28;20030;-84
2021/12/26 04:10:36;;;;;;;15.70;6.72;;;;;;;3.98;100.00;93534.72;4984003;28;20022;-84
2021/12/26 04:13:02;;;;;;;12.13;5.07;;;;;;;4.07;100.00;93535.81;4984060;28;20064;-84
2021/12/26 04:15:27;;;;;;;6.80;2.38;;;;;;;4.13;100.00;93527.09;5015724;28;20427;-84
2021/12/26 04:17:54;;;;;;;4.30;1.98;;;;;;;4.10;100.00;93536.13;5000170;28;20036;-84
2021/12/26 04:20:22;;;;;;;3.30;1.83;;;;;;;4.07;100.00;93535.81;5000047;28;20533;-84
2021/12/26 04:22:48;;;;;;;3.47;2.00;;;;;;;3.98;100.00;93525.13;5000091;28;20398;-84
2021/12/26 04:25:14;;;;;;;10.60;3.97;;;;;;;4.05;100.00;93530.91;5015889;28;20025;-84
2021/12/26 04:27:39;;;;;;;11.52;5.72;;;;;;;4.00;100.00;93530.06;4983815;28;20037;-84
2021/12/26 04:30:08;;;;;;;2.65;1.90;;;;;;;3.90;100.00;93525.59;4999755;28;20025;-84
2021/12/26 04:32:34;;;;;;;9.73;4.45;;;;;;;3.93;100.00;93530.28;4999765;28;20132;-84
2021/12/26 04:34:59;;;;;;;9.55;4.57;;;;;;;3.90;100.00;93528.19;4999165;28;20482;-84
2021/12/26 04:37:25;;;;;;;6.30;3.08;;;;;;;3.94;100.00;93537.03;4999682;28;20030;-84
2021/12/26 04:39:50;;;;;;;4.75;2.47;;;;;;;3.99;100.00;93521.50;4999574;28;20037;-84
2021/12/26 04:42:16;;;;;;;262.98;10.88;;;;;;;4.06;100.00;93537.66;4999816;28;20032;-83
2021/12/26 04:44:41;;;;;;;403.30;19.73;;;;;;;3.91;100.00;93530.50;4999215;28;20048;-84
2021/12/26 04:47:07;;;;;;;10.20;3.50;;;;;;;3.85;100.00;93535.88;4983613;28;20439;-84
2021/12/26 04:49:33;;;;;;;1012.47;57.97;;;;;;;3.71;100.00;93531.09;4999507;28;20469;-84
2021/12/26 04:51:58;;;;;;;52.40;7.95;;;;;;;3.60;100.00;93530.22;5015807;28;20104;-84
2021/12/26 04:54:24;;;;;;;210.35;15.98;;;;;;;3.59;100.00;93527.91;4999067;28;20323;-84
2021/12/26 04:56:49;;;;;;;184.90;16.42;;;;;;;3.53;100.00;93525.22;4983467;28;20116;-84
2021/12/26 04:59:15;;;;;;;27.88;12.57;;;;;;;3.59;100.00;93517.53;5017179;28;20030;-84
2021/12/26 05:01:41;;;;;;;24.20;10.98;;;;;;;3.58;100.00;93524.50;5013519;28;20040;-84
2021/12/26 05:04:06;;;;;;;33.50;11.20;;;;;;;3.72;100.00;93517.13;5002324;28;20057;-84
2021/12/26 05:06:32;;;;;;;15.55;6.28;;;;;;;3.76;100.00;93515.63;5019415;28;20107;-84
2021/12/26 05:08:57;;;;;;;25.15;8.55;;;;;;;3.77;100.00;93522.38;5002830;28;20107;-84
2021/12/26 05:11:23;;;;;;;25.98;8.88;;;;;;;3.67;100.00;93525.66;5002686;28;20025;-84
2021/12/26 05:13:48;;;;;;;23.73;8.90;;;;;;;3.69;100.00;93522.78;5012424;28;20037;-84
2021/12/26 05:16:14;;;;;;;15.57;6.63;;;;;;;3.69;100.00;93527.97;5006149;28;20032;-84
2021/12/26 05:18:39;;;;;;;16.48;8.57;;;;;;;3.86;100.00;93532.28;4983538;28;20034;-84
2021/12/26 05:21:05;;;;;;;195.63;11.38;;;;;;;3.78;100.00;93534.28;5005448;28;20076;-84
2021/12/26 05:23:30;;;;;;;53.85;6.90;;;;;;;3.90;100.00;93531.53;4999564;28;20034;-84
2021/12/26 05:25:56;;;;;;;10.85;4.97;;;;;;;4.07;100.00;93535.81;4999170;28;20052;-84
2021/12/26 05:28:21;;;;;;;10.55;5.22;;;;;;;4.09;100.00;93528.59;4999371;28;20507;-84
2021/12/26 05:30:47;;;;;;;14.98;6.03;;;;;;;3.84;100.00;93531.75;4982996;28;20030;-84
2021/12/26 05:33:12;;;;;;;20.02;7.55;;;;;;;3.76;100.00;93514.81;5016084;28;20030;-84
2021/12/26 05:35:38;;;;;;;18.60;7.68;;;;;;;3.74;100.00;93519.47;5016459;28;20034;-84
2021/12/26 05:38:04;;;;;;;19.95;7.90;;;;;;;3.76;100.00;93517.41;5002844;28;20050;-84
2021/12/26 05:40:29;;;;;;;16.48;6.75;;;;;;;3.93;100.00;93520.69;5031023;28;20033;-84
2021/12/26 05:42:55;;;;;;;12.30;5.82;;;;;;;3.96;100.00;93525.41;5025642;28;20127;-84
2021/12/26 05:45:20;;;;;;;13.52;6.15;;;;;;;3.94;100.00;93519.66;5025510;28;20448;-84
2021/12/26 05:47:46;;;;;;;11.68;5.65;;;;;;;3.94;100.00;93524.06;5025973;28;20056;-84
2021/12/26 05:50:15;;;;;;;15.40;7.35;;;;;;;4.02;100.00;93522.84;5042391;28;20056;-84
2021/12/26 05:52:41;;;;;;;12.20;6.63;;;;;;;4.00;100.00;93525.66;5042132;28;20029;-84
2021/12/26 05:55:07;;;;;;;12.35;6.15;;;;;;;4.01;100.00;93522.03;5041783;28;20052;-84
2021/12/26 05:57:33;;;;;;;18.70;6.40;;;;;;;3.99;100.00;93518.91;5041959;28;20337;-84
2021/12/26 05:59:58;;;;;;;16.17;6.55;;;;;;;4.10;100.00;93520.56;5025620;28;20120;-84
2021/12/26 06:02:26;;;;;;;13.60;6.10;;;;;;;3.96;100.00;93525.41;5025717;28;20053;-84
2021/12/26 06:04:51;;;;;;;12.18;5.35;;;;;;;3.95;100.00;93525.63;5041529;28;20025;-84
2021/12/26 06:07:17;;;;;;;12.23;6.30;;;;;;;3.95;100.00;93520.44;5041863;28;20029;-84
2021/12/26 06:09:43;;;;;;;13.45;5.43;;;;;;;3.91;100.00;93525.31;5025480;28;20021;-84
2021/12/26 06:12:12;;;;;;;20.50;7.63;;;;;;;3.93;100.00;93525.84;5041767;28;20047;-84
2021/12/26 06:14:37;;;;;;;16.40;7.10;;;;;;;3.97;100.00;93526.16;5025124;28;20025;-84
2021/12/26 06:17:03;;;;;;;16.38;6.25;;;;;;;4.06;100.00;93519.50;5041712;28;20025;-84
2021/12/26 06:19:29;;;;;;;12.60;5.93;;;;;;;4.16;100.00;93513.63;5041472;28;20036;-84
2021/12/26 06:21:54;;;;;;;13.10;6.00;;;;;;;4.12;100.00;93522.94;5025425;28;20456;-84
2021/12/26 06:24:19;;;;;;;14.18;5.72;;;;;;;4.21;100.00;93529.19;5024527;28;20028;-84
2021/12/26 06:26:46;;;;;;;12.77;5.50;;;;;;;4.29;100.00;93529.78;5041826;28;20029;-84
2021/12/26 06:29:12;;;;;;;14.93;5.45;;;;;;;4.21;100.00;93531.03;5041657;28;20021;-84
2021/12/26 06:31:38;;;;;;;20.33;6.70;;;;;;;4.18;100.00;93534.13;5059238;28;20035;-84
2021/12/26 06:34:03;;;;;;;11.13;5.53;;;;;;;4.18;100.00;93539.31;5024571;28;20395;-84
2021/12/26 06:36:29;;;;;;;17.92;6.60;;;;;;;4.22;100.00;93542.97;5041346;28;20029;-84
2021/12/26 06:38:54;;;;;;;11.07;6.25;;;;;;;4.29;100.00;93543.53;5041346;28;20025;-84
2021/12/26 06:41:20;;;;;;;19.55;4.50;;;;;;;4.41;100.00;93545.16;5041161;28;20104;-84
2021/12/26 06:43:45;;;;;;;8.82;4.18;;;;;;;4.40;100.00;93557.38;5040811;28;20028;-84
2021/12/26 06:46:11;;;;;;;8.68;4.65;;;;;;;4.42;100.00;93562.28;5041196;28;20029;-84
2021/12/26 06:48:41;;;;;;;13.77;5.15;;;;;;;4.38;100.00;93559.44;5041123;28;20052;-84
2021/12/26 06:51:07;;;;;;;9.65;4.43;;;;;;;4.35;100.00;93565.88;5041279;28;20016;-84
2021/12/26 06:53:32;;;;;;;60.47;4.60;;;;;;;4.33;100.00;93569.75;5024473;28;20384;-84
2021/12/26 06:55:58;;;;;;;149.40;7.20;;;;;;;4.33;100.00;93562.75;5040925;28;20066;-84
2021/12/26 06:58:23;;;;;;;41.30;3.60;;;;;;;4.39;100.00;93566.94;5040972;28;20028;-83
2021/12/26 07:00:49;;;;;;;47.22;6.63;;;;;;;4.30;100.00;93565.06;5058593;28;20029;-84
2021/12/26 07:03:14;;;;;;;8.85;4.50;;;;;;;4.35;100.00;93565.09;5024135;28;20468;-84
2021/12/26 07:05:40;;;;;;;8.18;4.55;;;;;;;4.30;100.00;93565.84;5058542;28;20032;-84
2021/12/26 07:08:06;;;;;;;19.40;6.00;;;;;;;4.32;100.00;93566.38;5040803;28;20028;-84
2021/12/26 07:10:31;;;;;;;12.63;6.32;;;;;;;4.28;100.00;93565.31;5040681;28;20370;-84
2021/12/26 07:12:57;;;;;;;12.27;6.18;;;;;;;4.36;100.00;93561.47;5040680;28;20025;-84
2021/12/26 07:15:22;;;;;;;6.93;4.28;;;;;;;4.51;100.00;93566.78;5040105;28;20028;-84
2021/12/26 07:17:48;;;;;;;9.40;4.60;;;;;;;4.60;100.00;93566.31;5040607;28;20441;-83
2021/12/26 07:20:14;;;;;;;6.93;3.95;;;;;;;4.63;100.00;93565.81;5040451;28;20032;-83
2021/12/26 07:22:40;;;;;;;9.55;4.60;;;;;;;4.64;100.00;93562.97;5023820;28;20025;-83
2021/12/26 07:25:07;;;;;;;14.77;7.15;;;;;;;4.58;100.00;93568.38;5023617;28;20488;-83
2021/12/26 07:27:33;;;;;;;16.35;6.40;;;;;;;4.51;100.00;93573.78;5039975;28;20021;-83
2021/12/26 07:30:02;;;;;;;6.93;2.80;;;;;;;4.65;100.00;93564.53;5012299;28;20037;-83
2021/12/26 07:32:28;;;;;;;5.65;2.33;;;;;;;4.71;100.00;93565.38;5005372;28;20025;-83
2021/12/26 07:34:53;;;;;;;9.30;4.90;;;;;;;4.60;100.00;93564.53;5012263;28;20125;-83
2021/12/26 07:37:19;;;;;;;7.70;3.20;;;;;;;4.81;100.00;93569.84;5007127;28;20029;-83
2021/12/26 07:39:44;;;;;;;5.68;2.78;;;;;;;4.80;100.00;93570.88;5009989;28;20052;-83
2021/12/26 07:42:10;;;;;;;5.22;2.88;;;;;;;4.76;100.00;93570.56;5020189;28;20025;-83
2021/12/26 07:44:36;;;;;;;4.47;2.40;;;;;;;4.85;100.00;93570.13;5019677;28;20038;-83
2021/12/26 07:47:02;;;;;;;5.72;2.60;;;;;;;4.80;100.00;93571.63;5020100;28;20464;-83
2021/12/26 07:49:27;;;;;;;47.58;3.80;;;;;;;4.71;100.00;93580.94;5037750;28;20068;-83
2021/12/26 07:51:53;;;;;;;166.65;7.20;;;;;;;4.66;100.00;93579.09;5037705;28;20021;-83
2021/12/26 07:54:22;;;;;;;7.43;3.08;;;;;;;4.66;100.00;93578.28;5019469;28;20465;-83
2021/12/26 07:56:48;;;;;;;6.30;2.35;;;;;;;4.69;100.00;93577.81;5020425;28;20032;-82
2021/12/26 07:59:14;;;;;;;124.10;8.57;;;;;;;4.52;100.00;93583.94;5003332;28;20031;-82
2021/12/26 08:01:40;;;;;;;11.63;4.05;;;;;;;4.56;100.00;93586.78;5002869;28;20037;-83
2021/12/26 08:04:08;;;;;;;5.43;3.22;;;;;;;4.73;100.00;93585.84;5019426;28;20022;-83
2021/12/26 08:06:34;;;;;;;5.53;2.50;;;;;;;4.76;100.00;93587.97;5019789;28;20049;-83
2021/12/26 08:08:59;;;;;;;17.35;2.88;;;;;;;4.82;100.00;93589.56;5003616;28;20033;-82
2021/12/26 08:11:25;;;;;;;12.68;3.60;;;;;;;4.86;100.00;93600.22;5003534;28;20426;-82
2021/12/26 08:13:51;;;;;;;11.07;3.42;;;;;;;4.84;100.00;93586.72;5002886;28;20021;-82
2021/12/26 08:16:16;;;;;;;16.75;3.45;;;;;;;4.89;100.00;93600.53;5019657;28;20029;-82
2021/12/26 08:18:43;;;;;;;5.15;2.53;;;;;;;4.92;100.00;93599.22;5019684;28;20088;-82
2021/12/26 08:21:08;;;;;;;5.57;2.58;;;;;;;4.92;100.00;93602.63;5019402;28;20025;-83
2021/12/26 08:23:34;;;;;;;4.68;2.25;;;;;;;5.03;100.00;93608.66;5019046;28;20393;-83
2021/12/26 08:26:00;;;;;;;6.88;2.00;;;;;;;5.05;100.00;93608.41;5019603;28;20120;-84
2021/12/26 08:28:26;;;;;;;4.10;2.15;;;;;;;5.07;100.00;93608.94;5018752;28;20426;-84
2021/12/26 08:30:51;;;;;;;5.78;2.80;;;;;;;5.05;100.00;93613.59;5002750;28;20014;-84
2021/12/26 08:33:17;;;;;;;28.58;3.90;;;;;;;4.95;100.00;93607.31;5018851;28;20417;-84
2021/12/26 08:35:44;;;;;;;8.80;2.45;;;;;;;4.96;100.00;93610.69;5019267;28;20372;-84
2021/12/26 08:38:11;;;;;;;6.97;3.03;;;;;;;5.00;100.00;93616.94;5003164;28;20021;-84
2021/12/26 08:40:36;;;;;;;9.30;3.38;;;;;;;5.00;100.00;93616.94;5019220;28;20026;-84
2021/12/26 08:43:02;;;;;;;55.60;4.45;;;;;;;4.97;100.00;93614.84;5019416;28;20025;-84
2021/12/26 08:45:28;;;;;;;66.68;3.72;;;;;;;5.12;100.00;93621.16;5018874;28;20056;-84
2021/12/26 08:47:55;;;;;;;1072.13;63.75;;;;;;;4.81;100.00;93625.13;5002988;28;20082;-83
2021/12/26 08:50:21;;;;;;;918.75;61.13;;;;;;;4.38;100.00;93622.44;5036771;28;20017;-83
2021/12/26 08:52:47;;;;;;;911.42;52.10;;;;;;;4.36;100.00;93615.94;5019117;28;20025;-84
2021/12/26 08:55:13;;;;;;;568.60;38.20;;;;;;;4.35;100.00;93617.75;5036262;28;20453;-84
2021/12/26 08:57:38;;;;;;;12.55;4.50;;;;;;;4.60;100.00;93616.41;5018797;28;20028;-84
2021/12/26 09:00:06;;;;;;;16.25;2.85;;;;;;;4.71;100.00;93606.88;5016756;28;20108;-84
2021/12/26 09:02:31;;;;;;;100.07;7.82;;;;;;;4.58;100.00;93610.66;5002893;28;20041;-84
2021/12/26 09:04:57;;;;;;;22.85;6.10;;;;;;;4.47;100.00;93612.41;5018839;28;20056;-84
2021/12/26 09:07:22;;;;;;;156.18;10.05;;;;;;;4.54;100.00;93612.19;5018959;28;20026;-84
2021/12/26 09:09:48;;;;;;;3.90;2.70;;;;;;;4.62;100.00;93611.75;5002734;28;20123;-83
2021/12/26 09:12:13;;;;;;;4.50;2.58;;;;;;;4.70;100.00;93610.50;5005606;28;20025;-83
2021/12/26 09:14:39;;;;;;;449.65;19.00;;;;;;;4.60;100.00;93613.03;5022825;28;20036;-83
2021/12/26 09:17:05;;;;;;;653.30;28.45;;;;;;;4.55;100.00;93608.56;5022975;28;20460;-84
2021/12/26 09:19:32;;;;;;;200.85;9.25;;;;;;;4.55;100.00;93607.81;5023163;28;20040;-84
2021/12/26 09:22:00;;;;;;;4.22;1.80;;;;;;;4.64;100.00;93612.28;5022933;28;20510;-84
2021/12/26 09:24:26;;;;;;;10.70;3.17;;;;;;;4.62;100.00;93603.97;5006589;28;20431;-84
2021/12/26 09:26:52;;;;;;;75.30;6.78;;;;;;;4.90;100.00;93614.28;5022695;28;20029;-83
2021/12/26 09:29:17;;;;;;;45.08;7.57;;;;;;;4.76;100.00;93603.53;5022631;28;20032;-84
2021/12/26 09:31:43;;;;;;;22.02;7.60;;;;;;;4.86;100.00;93610.63;5006527;28;20339;-84
2021/12/26 09:34:08;;;;;;;169.82;14.57;;;;;;;4.66;100.00;93609.41;5006211;28;20033;-84
2021/12/26 09:36:35;;;;;;;647.67;34.78;;;;;;;4.61;100.00;93612.00;5006391;28;20124;-84
2021/12/26 09:39:01;;;;;;;467.55;25.30;;;;;;;4.63;100.00;93615.91;5022961;28;20041;-84
2021/12/26 09:41:27;;;;;;;268.05;20.25;;;;;;;4.76;100.00;93601.72;5022416;28;20033;-84
2021/12/26 09:43:52;;;;;;;851.67;47.38;;;;;;;4.73;100.00;93596.25;5022292;28;20426;-83
2021/12/26 09:46:18;;;;;;;310.77;18.85;;;;;;;4.67;100.00;93604.00;5005904;28;20043;-83
2021/12/26 09:48:43;;;;;;;126.05;13.30;;;;;;;4.68;100.00;93607.38;5006244;28;20025;-83
2021/12/26 09:51:09;;;;;;;226.75;17.80;;;;;;;4.88;100.00;93598.16;5022644;28;20041;-82
2021/12/26 09:53:42;;;;;;;241.88;18.92;;;;;;;4.84;100.00;93597.09;5022226;28;20354;-83
2021/12/26 09:56:08;;;;;;;446.48;25.85;;;;;;;4.89;100.00;93597.13;5022771;28;20033;-83
2021/12/26 09:59:03;;;;;;;711.70;39.15;;;;;;;5.02;100.00;93595.91;5002446;28;20466;-83
2021/12/26 10:01:41;;;;;;;20.13;9.95;;;;;;;5.38;100.00;93593.50;5002365;28;20018;-83
2021/12/26 10:04:17;;;;;;;40.92;12.60;;;;;;;5.42;100.00;93591.94;5018762;28;20037;-83
2021/12/26 10:06:43;;;;;;;27.90;10.73;;;;;;;5.33;100.00;93590.91;5018795;28;20486;-83
2021/12/26 10:09:09;;;;;;;222.57;16.05;;;;;;;5.46;100.00;93582.63;5002382;28;20029;-83
2021/12/26 10:11:40;;;;;;;34.17;9.57;;;;;;;5.38;100.00;93576.13;5002828;28;20489;-83
2021/12/26 10:14:11;;;;;;;21.52;9.25;;;;;;;5.40;100.00;93573.25;5019648;28;20346;-83
2021/12/26 10:16:41;;;;;;;36.00;11.18;;;;;;;5.39;100.00;93569.09;5029255;28;20559;-84
2021/12/26 10:19:08;;;;;;;23.83;9.43;;;;;;;5.26;100.00;93569.53;5005690;28;20346;-84
2021/12/26 10:21:40;;;;;;;27.27;11.00;;;;;;;5.33;100.00;93562.31;5021648;28;20029;-84
2021/12/26 10:24:28;;;;;;;817.03;40.67;;;;;;;5.32;100.00;93565.97;5021642;28;20029;-84
2021/12/26 10:26:59;;;;;;;31.00;9.50;;;;;;;5.29;100.00;93562.03;5005564;28;20029;-84
2021/12/26 10:29:33;;;;;;;80.60;11.40;;;;;;;5.27;100.00;93561.50;5005446;28;20025;-84
2021/12/26 10:32:12;;;;;;;18.00;9.13;;;;;;;5.62;100.00;93567.09;5039237;28;20087;-84
2021/12/26 10:34:39;;;;;;;109.28;12.13;;;;;;;5.61;100.00;93558.50;5038984;28;20465;-84
2021/12/26 10:37:08;;;;;;;25.67;9.35;;;;;;;5.65;100.00;93551.00;5021482;28;20060;-84
2021/12/26 10:39:40;;;;;;;38.13;9.50;;;;;;;5.62;100.00;93551.50;5005234;28;20060;-84
2021/12/26 10:42:08;;;;;;;52.00;9.63;;;;;;;5.99;100.00;93552.38;5005377;28;20026;-84
2021/12/26 10:44:39;;;;;;;109.60;11.55;;;;;;;6.02;100.00;93546.66;5005128;28;20021;-84
2021/12/26 10:47:32;;;;;;;19.38;7.10;;;;;;;6.35;100.00;93547.19;5021398;28;20025;-84
2021/12/26 10:50:06;;;;;;;11.32;6.18;;;;;;;6.82;100.00;93534.16;5002571;28;20168;-84
2021/12/26 10:52:36;;;;;;;10.60;5.60;;;;;;;7.07;100.00;93531.47;5038831;28;20021;-84
2021/12/26 10:55:05;;;;;;;9.07;5.00;;;;;;;7.06;100.00;93519.50;5038719;28;20032;-84
2021/12/26 10:57:35;;;;;;;7.55;4.55;;;;;;;7.00;100.00;93511.97;5038723;28;20032;-84
2021/12/26 11:00:24;;;;;;;6.55;4.35;;;;;;;7.05;100.00;93504.16;5020972;28;20029;-84
2021/12/26 11:03:10;;;;;;;7.43;4.00;;;;;;;7.38;100.00;93496.72;5004952;28;20374;-83
2021/12/26 11:05:44;;;;;;;7.13;4.05;;;;;;;7.78;100.00;93497.56;5004828;28;20500;-84
2021/12/26 11:08:38;;;;;;;5.57;3.88;;;;;;;7.91;100.00;93493.53;5004817;28;20033;-84
2021/12/26 11:11:20;;;;;;;10.77;4.53;;;;;;;7.45;100.00;93486.75;5017143;28;20164;-84
2021/12/26 11:13:46;;;;;;;9.45;4.22;;;;;;;7.58;100.00;93487.22;5016110;28;20452;-84
2021/12/26 11:16:14;;;;;;;6.05;3.67;;;;;;;7.66;100.00;93478.06;5020446;28;21275;-84
2021/12/26 11:18:39;;;;;;;6.80;3.67;;;;;;;7.75;100.00;93479.06;5020664;28;20319;-84
2021/12/26 11:21:07;;;;;;;8.43;3.85;;;;;;;7.77;100.00;93475.13;5004469;28;20040;-84
2021/12/26 11:23:35;;;;;;;7.82;4.50;;;;;;;7.61;100.00;93473.69;5003961;28;20540;-84
2021/12/26 11:26:15;;;;;;;18.20;5.05;;;;;;;7.74;100.00;93473.03;5004400;28;20095;-83
2021/12/26 11:28:46;;;;;;;219.60;9.27;;;;;;;7.56;100.00;93469.25;5020571;28;20457;-84
2021/12/26 11:31:20;;;;;;;162.15;8.77;;;;;;;7.53;100.00;93476.84;5018421;28;20025;-84
2021/12/26 11:33:54;;;;;;;134.32;9.40;;;;;;;7.87;100.00;93476.09;5003137;28;20048;-84
2021/12/26 11:36:20;;;;;;;6.10;4.15;;;;;;;8.10;100.00;93477.22;5020935;28;20044;-83
2021/12/26 11:38:47;;;;;;;5.55;3.67;;;;;;;8.52;100.00;93471.69;5020189;28;20480;-84
2021/12/26 11:41:21;;;;;;;50.55;5.32;;;;;;;8.51;100.00;93472.75;5020127;28;20021;-84
2021/12/26 11:44:12;;;;;;;44.85;5.13;;;;;;;8.34;100.00;93464.25;4986330;28;20026;-84
2021/12/26 11:46:41;;;;;;;29.20;3.88;;;;;;;8.02;100.00;93467.41;5000669;28;20041;-84
2021/12/26 11:49:29;;;;;;;10.90;4.05;;;;;;;7.58;100.00;93471.59;5017917;28;20026;-84
2021/12/26 11:52:13;;;;;;;58.42;4.70;;;;;;;7.43;100.00;93467.25;5017884;28;20157;-84
2021/12/26 11:54:58;;;;;;;72.35;4.70;;;;;;;7.53;100.00;93463.81;5030820;28;20029;-84
2021/12/26 11:58:09;;;;;;;17.45;4.32;;;;;;;7.82;100.00;93473.53;5030338;28;20048;-84
2021/12/26 12:00:41;;;;;;;14.88;4.80;;;;;;;8.15;100.00;93476.41;5003293;28;20374;-84
2021/12/26 12:03:23;;;;;;;6.88;4.20;;;;;;;8.44;100.00;93467.81;5003972;28;20335;-84
2021/12/26 12:05:49;;;;;;;341.58;16.42;;;;;;;7.72;100.00;93469.94;5003703;28;20556;-84
2021/12/26 12:08:17;;;;;;;167.45;9.43;;;;;;;7.16;100.00;93474.41;5003574;28;20025;-84
2021/12/26 12:10:52;;;;;;;25.40;4.97;;;;;;;7.05;100.00;93475.50;5003289;28;20052;-84
2021/12/26 12:13:26;;;;;;;31.23;5.57;;;;;;;7.18;100.00;93474.13;5037267;28;20454;-83
2021/12/26 12:15:57;;;;;;;63.22;7.13;;;;;;;7.58;100.00;93468.97;5037343;28;20456;-84
2021/12/26 12:18:25;;;;;;;31.77;5.93;;;;;;;7.84;100.00;93466.22;5019688;28;20021;-84
2021/12/26 12:21:13;;;;;;;84.03;8.25;;;;;;;7.86;100.00;93462.28;5017216;28;20029;-84
2021/12/26 12:24:15;;;;;;;11.73;4.45;;;;;;;7.83;100.00;93467.25;5016657;28;20064;-84
2021/12/26 12:26:40;;;;;;;33.13;4.88;;;;;;;7.89;100.00;93469.56;5016250;28;20084;-84
2021/12/26 12:29:07;;;;;;;378.38;17.02;;;;;;;7.83;100.00;93467.25;5016417;28;20410;-84
2021/12/26 12:31:32;;;;;;;318.05;16.00;;;;;;;7.57;100.00;93463.00;4999825;28;20112;-84
2021/12/26 12:34:03;;;;;;;159.35;8.65;;;;;;;7.83;100.00;93468.06;4999467;28;20128;-84
2021/12/26 12:36:31;;;;;;;6.60;4.30;;;;;;;8.44;100.00;93458.16;4999810;28;20121;-84
2021/12/26 12:39:20;;;;;;;51.47;5.68;;;;;;;8.90;100.00;93467.41;4999694;28;20052;-84
2021/12/26 12:41:48;;;;;;;177.98;8.68;;;;;;;8.25;100.00;93468.50;5000064;28;20030;-84
2021/12/26 12:44:32;;;;;;;20.98;4.25;;;;;;;8.42;100.00;93467.31;4999497;28;20026;-84
2021/12/26 12:46:59;;;;;;;;;;;;;;;8.69;100.00;93464.22;5016320;28;20065;-84
2021/12/26 12:49:46;;;;;;;21.02;4.85;;;;;;;8.70;100.00;93468.41;4999749;28;20302;-84
2021/12/26 12:52:37;;;;;;;371.38;16.58;;;;;;;8.45;100.00;93462.34;4998950;28;20033;-84
2021/12/26 12:55:16;;;;;;;233.00;12.80;;;;;;;8.28;100.00;93467.97;4986293;28;20041;-85
2021/12/26 12:57:48;;;;;;;363.02;18.42;;;;;;;7.74;100.00;93470.44;5016894;28;20033;-85
2021/12/26 13:00:26;;;;;;;123.43;8.35;;;;;;;7.56;100.00;93461.44;4999450;28;20030;-84
2021/12/26 13:02:53;;;;;;;201.20;11.50;;;;;;;7.58;100.00;93467.16;5016893;28;20068;-84
2021/12/26 13:05:36;;;;;;;367.70;16.85;;;;;;;7.41;100.00;93464.91;4982948;28;20030;-84
2021/12/26 13:08:09;;;;;;;33.97;8.38;;;;;;;7.32;100.00;93461.31;5016846;28;20124;-85
2021/12/26 13:10:35;;;;;;;304.88;15.00;;;;;;;6.96;100.00;93451.03;4999323;28;20379;-84
2021/12/26 13:13:10;;;;;;;292.98;15.20;;;;;;;7.03;100.00;93448.91;4999427;28;20025;-84
2021/12/26 13:15:48;;;;;;;361.10;18.80;;;;;;;6.83;100.00;93455.00;4999264;28;20026;-85
2021/12/26 13:18:14;;;;;;;441.48;18.85;;;;;;;7.05;100.00;93449.47;4999318;28;20050;-84
2021/12/26 13:20:40;;;;;;;39.92;6.78;;;;;;;7.18;100.00;93456.69;4998768;28;20080;-84
2021/12/26 13:23:06;;;;;;;56.80;7.32;;;;;;;7.26;100.00;93457.97;4982869;28;20034;-85
2021/12/26 13:25:37;;;;;;;30.00;6.20;;;;;;;7.36;100.00;93457.13;4983145;28;20033;-85
2021/12/26 13:28:26;;;;;;;10.75;6.25;;;;;;;7.53;100.00;93451.56;4999266;28;20092;-84
2021/12/26 13:31:18;;;;;;;585.58;29.05;;;;;;;6.95;100.00;93447.66;4999203;28;20029;-84
2021/12/26 13:33:50;;;;;;;28.10;6.72;;;;;;;7.35;100.00;93455.56;4994726;28;20128;-84
2021/12/26 13:36:20;;;;;;;291.50;13.93;;;;;;;7.33;100.00;93457.66;4999157;28;20443;-84
2021/12/26 13:38:48;;;;;;;310.55;19.40;;;;;;;6.97;100.00;93450.78;4983690;28;20049;-85
2021/12/26 13:41:16;;;;;;;424.83;22.52;;;;;;;6.81;100.00;93450.06;4998943;28;20029;-84
2021/12/26 13:43:42;;;;;;;213.77;13.23;;;;;;;6.87;100.00;93448.97;5016369;28;20026;-85
2021/12/26 13:46:10;;;;;;;632.33;29.02;;;;;;;6.52;100.00;93445.44;4982942;28;20065;-84
2021/12/26 13:48:38;;;;;;;325.63;21.48;;;;;;;6.26;100.00;93455.91;4982947;28;20092;-84
2021/12/26 13:51:28;;;;;;;167.30;23.40;;;;;;;6.66;100.00;93456.06;5016456;28;20021;-84
2021/12/26 13:54:19;;;;;;;105.07;29.15;;;;;;;6.43;100.00;93462.63;5014169;28;20029;-84
2021/12/26 13:56:54;;;;;;;59.75;13.50;;;;;;;6.76;100.00;93453.44;5002753;28;20029;-84
2021/12/26 13:59:50;;;;;;;99.03;12.75;;;;;;;6.23;100.00;93461.63;5022412;28;20342;-85
2021/12/26 14:02:23;;;;;;;434.23;25.45;;;;;;;6.07;100.00;93461.66;5000621;28;20049;-84
2021/12/26 14:04:50;;;;;;;317.02;19.67;;;;;;;6.00;100.00;93466.28;5006873;28;20426;-84
2021/12/26 14:07:30;;;;;;;123.00;12.25;;;;;;;6.31;100.00;93468.91;5003176;28;20026;-84